Sodtown, Nebraska
Current Conditions -  °F | °C
As of 3:15 PM on Thursday 23 Oct 2014 (Local Time) from KEAR Reporting Station
Clear Clear  
Wind Chill: 64°   Ceiling: Unl
Heat Index: 64°   Visibility: 10mi
Dew Point: 55°   Wind: 12mph
Humidity: 73%   Direction: 160°SSE
Pressure: 30.04"   Gusts: NA
Location:  41.0033°N, 98.8321°W
Report Text: KEAR 232015Z 16010KT 10SM CLR 18/13 A3004 RMK AO1
Loading
Personal Weather Stations






























Interactive Weather Map
Tropical Storm Tracking
New forecast layout! Learn more

10-Day Weather Forecast

Advertisements
Track Severe Weather on mobile